메인 페이지
METAR-TAF:

METAR-TAF

공항 :

Northwest Arkansas Regional Airport

Fayetteville, 아칸소, 미국

위도: 36-16-55N, 경도: 094-18-25W, 고도: 392m

현재 날씨관측

예보는 37분 전, 18:53시(UTC)에 발표되었습니다.
5kt
온도 18°C
습도 34%
기압 1015 hPa
시정: 16.1km
맑음

METAR: KXNA 191853Z 18005KT 10SM CLR 18/02 A2998 RMK AO2 SLP144 T01830017

시각: 13:30 (19:30 UTC)

예보

예보는 2 시간 10분 전, 17:20시(UTC)에 발표되었습니다.
예보 대상 시간: 19일 18시부터 20일 18시까지 (UTC)
여러 방향의 바람 4kt
시정: 10km
맑음
20일 1500시부터 (UTC)
12kt
시정: 10km
고도 25000ft 상공 구름 보통

TAF: KXNA 191720Z 1918/2018 VRB04KT P6SM SKC FM201500 17012KT P6SM SCT250

4,000개 이상의 공항 관측 자료 및 예보 (METAR 및 TAF 보고).

지도상에서 검색 가능한 기상관측소가 노란 점과 빨간 점으로 표시되어 있습니다.

기상관측소 명을 보려면 표시 위로 마우스를 이동하세요.

날씨 관측과 예보를 보려면 클릭하세요.

지도 변경 : 확대하려면 엑스 표시가 있는 녹색 버튼, 축소하려면 빼기 표시가 있는 녹색 버튼, 다음 페이지의 지도를 보려면 녹색 화살표를 클릭하세요.


METAR-TAF: